sensor_id;sensor_type;location;lat;lon;timestamp;pressure;altitude;pressure_sealevel;temperature;humidity
59767;BME280;46248;58.364;25.582;2023-07-02T00:00:02;99006.09;;;15.86;90.91
59767;BME280;46248;58.364;25.582;2023-07-02T00:03:25;99008.03;;;15.84;90.85
59767;BME280;46248;58.364;25.582;2023-07-02T00:06:47;99005.53;;;15.82;90.59
59767;BME280;46248;58.364;25.582;2023-07-02T00:10:10;99022.88;;;15.85;91.01
59767;BME280;46248;58.364;25.582;2023-07-02T00:13:32;99025.00;;;15.81;90.95
59767;BME280;46248;58.364;25.582;2023-07-02T00:16:54;99018.66;;;15.74;91.59
59767;BME280;46248;58.364;25.582;2023-07-02T00:20:16;99027.00;;;15.69;92.51
59767;BME280;46248;58.364;25.582;2023-07-02T00:23:40;99018.66;;;15.64;92.63
59767;BME280;46248;58.364;25.582;2023-07-02T00:27:03;99012.72;;;15.62;93.13
59767;BME280;46248;58.364;25.582;2023-07-02T00:30:26;99020.09;;;15.58;93.16
59767;BME280;46248;58.364;25.582;2023-07-02T00:33:48;99027.31;;;15.56;93.99
59767;BME280;46248;58.364;25.582;2023-07-02T00:37:10;99023.75;;;15.48;96.30
59767;BME280;46248;58.364;25.582;2023-07-02T00:40:31;99014.53;;;15.34;97.85
59767;BME280;46248;58.364;25.582;2023-07-02T00:43:55;99020.06;;;15.31;97.55
59767;BME280;46248;58.364;25.582;2023-07-02T00:47:17;99013.59;;;15.25;99.04
59767;BME280;46248;58.364;25.582;2023-07-02T00:50:39;99003.47;;;15.21;99.91
59767;BME280;46248;58.364;25.582;2023-07-02T00:54:00;99014.03;;;15.21;98.98
59767;BME280;46248;58.364;25.582;2023-07-02T00:57:22;99006.41;;;15.18;100.00
59767;BME280;46248;58.364;25.582;2023-07-02T01:00:51;98998.38;;;15.09;99.40
59767;BME280;46248;58.364;25.582;2023-07-02T01:04:17;98998.09;;;15.12;99.74
59767;BME280;46248;58.364;25.582;2023-07-02T01:07:39;99004.34;;;15.11;99.99
59767;BME280;46248;58.364;25.582;2023-07-02T01:11:01;98999.22;;;15.10;99.45
59767;BME280;46248;58.364;25.582;2023-07-02T01:14:26;98995.59;;;15.11;99.80
59767;BME280;46248;58.364;25.582;2023-07-02T01:17:51;98997.25;;;15.12;99.83
59767;BME280;46248;58.364;25.582;2023-07-02T01:21:15;98992.97;;;15.11;100.00
59767;BME280;46248;58.364;25.582;2023-07-02T01:24:38;99001.88;;;15.10;100.00
59767;BME280;46248;58.364;25.582;2023-07-02T01:28:01;98988.13;;;15.06;100.00
59767;BME280;46248;58.364;25.582;2023-07-02T01:31:23;98991.69;;;15.15;100.00
59767;BME280;46248;58.364;25.582;2023-07-02T01:34:46;98990.75;;;15.16;100.00
59767;BME280;46248;58.364;25.582;2023-07-02T01:38:11;98986.41;;;15.15;100.00
59767;BME280;46248;58.364;25.582;2023-07-02T01:41:41;98984.78;;;15.14;100.00
59767;BME280;46248;58.364;25.582;2023-07-02T01:45:03;98969.25;;;15.11;100.00
59767;BME280;46248;58.364;25.582;2023-07-02T01:48:25;98976.88;;;15.14;100.00
59767;BME280;46248;58.364;25.582;2023-07-02T01:51:49;98970.75;;;15.14;100.00
59767;BME280;46248;58.364;25.582;2023-07-02T01:55:12;98972.28;;;15.16;100.00
59767;BME280;46248;58.364;25.582;2023-07-02T01:58:34;98974.75;;;15.18;100.00
59767;BME280;46248;58.364;25.582;2023-07-02T02:01:56;98950.97;;;15.00;100.00
59767;BME280;46248;58.364;25.582;2023-07-02T02:05:18;98974.94;;;15.06;100.00
59767;BME280;46248;58.364;25.582;2023-07-02T02:08:40;98960.00;;;14.97;100.00
59767;BME280;46248;58.364;25.582;2023-07-02T02:12:04;98966.94;;;14.98;100.00
59767;BME280;46248;58.364;25.582;2023-07-02T02:15:27;98971.53;;;14.96;100.00
59767;BME280;46248;58.364;25.582;2023-07-02T02:18:48;98969.88;;;14.95;100.00
59767;BME280;46248;58.364;25.582;2023-07-02T02:22:12;98960.44;;;14.93;100.00
59767;BME280;46248;58.364;25.582;2023-07-02T02:25:34;98956.13;;;14.92;100.00
59767;BME280;46248;58.364;25.582;2023-07-02T02:28:57;98953.34;;;14.93;100.00
59767;BME280;46248;58.364;25.582;2023-07-02T02:32:19;98961.97;;;14.95;100.00
59767;BME280;46248;58.364;25.582;2023-07-02T02:35:42;98952.38;;;14.94;100.00
59767;BME280;46248;58.364;25.582;2023-07-02T02:39:03;98947.94;;;14.95;100.00
59767;BME280;46248;58.364;25.582;2023-07-02T02:42:25;98948.34;;;15.00;100.00
59767;BME280;46248;58.364;25.582;2023-07-02T02:45:49;98939.47;;;15.01;100.00
59767;BME280;46248;58.364;25.582;2023-07-02T02:49:11;98943.31;;;15.06;100.00
59767;BME280;46248;58.364;25.582;2023-07-02T02:52:32;98943.56;;;15.13;100.00
59767;BME280;46248;58.364;25.582;2023-07-02T02:55:54;98940.66;;;15.16;100.00
59767;BME280;46248;58.364;25.582;2023-07-02T02:59:16;98942.28;;;15.17;100.00
59767;BME280;46248;58.364;25.582;2023-07-02T03:02:39;98930.75;;;15.18;100.00
59767;BME280;46248;58.364;25.582;2023-07-02T03:06:01;98935.91;;;15.20;100.00
59767;BME280;46248;58.364;25.582;2023-07-02T03:09:23;98935.16;;;15.27;100.00
59767;BME280;46248;58.364;25.582;2023-07-02T03:12:44;98923.34;;;15.31;100.00
59767;BME280;46248;58.364;25.582;2023-07-02T03:16:06;98926.81;;;15.32;100.00
59767;BME280;46248;58.364;25.582;2023-07-02T03:19:30;98916.66;;;15.37;100.00
59767;BME280;46248;58.364;25.582;2023-07-02T03:22:52;98911.53;;;15.35;100.00
59767;BME280;46248;58.364;25.582;2023-07-02T03:26:13;98919.81;;;15.41;100.00
59767;BME280;46248;58.364;25.582;2023-07-02T03:29:35;98922.16;;;15.44;100.00
59767;BME280;46248;58.364;25.582;2023-07-02T03:32:58;98921.88;;;15.47;100.00
59767;BME280;46248;58.364;25.582;2023-07-02T03:36:21;98910.84;;;15.51;100.00
59767;BME280;46248;58.364;25.582;2023-07-02T03:39:44;98912.25;;;15.55;100.00
59767;BME280;46248;58.364;25.582;2023-07-02T03:43:06;98904.69;;;15.61;100.00
59767;BME280;46248;58.364;25.582;2023-07-02T03:46:28;98905.38;;;15.63;100.00
59767;BME280;46248;58.364;25.582;2023-07-02T03:49:50;98901.72;;;15.73;100.00
59767;BME280;46248;58.364;25.582;2023-07-02T03:53:14;98910.22;;;15.85;99.80
59767;BME280;46248;58.364;25.582;2023-07-02T03:56:35;98895.34;;;16.02;98.99
59767;BME280;46248;58.364;25.582;2023-07-02T03:59:57;98903.88;;;16.14;98.61
59767;BME280;46248;58.364;25.582;2023-07-02T04:03:19;98899.47;;;16.22;98.28
59767;BME280;46248;58.364;25.582;2023-07-02T04:06:41;98905.28;;;16.26;97.82
59767;BME280;46248;58.364;25.582;2023-07-02T04:10:05;98890.25;;;16.26;97.79
59767;BME280;46248;58.364;25.582;2023-07-02T04:13:27;98902.00;;;16.32;97.13
59767;BME280;46248;58.364;25.582;2023-07-02T04:16:49;98901.53;;;16.37;96.43
59767;BME280;46248;58.364;25.582;2023-07-02T04:20:11;98887.88;;;16.41;96.03
59767;BME280;46248;58.364;25.582;2023-07-02T04:23:33;98895.81;;;16.41;95.65
59767;BME280;46248;58.364;25.582;2023-07-02T04:26:57;98893.97;;;16.42;96.11
59767;BME280;46248;58.364;25.582;2023-07-02T04:30:40;98885.91;;;16.43;96.30
59767;BME280;46248;58.364;25.582;2023-07-02T04:34:03;98884.47;;;16.49;96.35
59767;BME280;46248;58.364;25.582;2023-07-02T04:37:26;98888.44;;;16.53;96.25
59767;BME280;46248;58.364;25.582;2023-07-02T04:40:49;98882.22;;;16.62;96.52
59767;BME280;46248;58.364;25.582;2023-07-02T04:44:13;98877.34;;;16.76;96.20
59767;BME280;46248;58.364;25.582;2023-07-02T04:47:35;98883.38;;;16.86;95.75
59767;BME280;46248;58.364;25.582;2023-07-02T04:50:57;98873.66;;;16.94;95.32
59767;BME280;46248;58.364;25.582;2023-07-02T04:54:19;98877.13;;;17.03;95.38
59767;BME280;46248;58.364;25.582;2023-07-02T04:57:42;98878.97;;;17.11;94.86
59767;BME280;46248;58.364;25.582;2023-07-02T05:01:06;98883.28;;;17.12;94.49
59767;BME280;46248;58.364;25.582;2023-07-02T05:04:28;98876.03;;;17.14;94.37
59767;BME280;46248;58.364;25.582;2023-07-02T05:07:49;98875.56;;;17.27;94.49
59767;BME280;46248;58.364;25.582;2023-07-02T05:15:58;98881.25;;;17.65;93.17
59767;BME280;46248;58.364;25.582;2023-07-02T05:19:22;98879.09;;;17.68;92.53
59767;BME280;46248;58.364;25.582;2023-07-02T05:22:44;98877.78;;;17.72;92.53
59767;BME280;46248;58.364;25.582;2023-07-02T05:26:06;98878.44;;;17.74;92.39
59767;BME280;46248;58.364;25.582;2023-07-02T05:29:28;98875.63;;;17.76;92.19
59767;BME280;46248;58.364;25.582;2023-07-02T05:32:49;98871.84;;;17.70;91.55
59767;BME280;46248;58.364;25.582;2023-07-02T05:36:12;98872.66;;;17.62;91.98
59767;BME280;46248;58.364;25.582;2023-07-02T05:39:34;98872.31;;;17.57;92.00
59767;BME280;46248;58.364;25.582;2023-07-02T05:42:56;98866.84;;;17.51;92.20
59767;BME280;46248;58.364;25.582;2023-07-02T05:46:18;98867.34;;;17.46;92.13
59767;BME280;46248;58.364;25.582;2023-07-02T05:49:41;98866.84;;;17.51;92.26
59767;BME280;46248;58.364;25.582;2023-07-02T05:53:04;98869.16;;;17.54;92.30
59767;BME280;46248;58.364;25.582;2023-07-02T05:56:26;98869.16;;;17.54;91.92
59767;BME280;46248;58.364;25.582;2023-07-02T05:59:47;98866.50;;;17.54;92.74
59767;BME280;46248;58.364;25.582;2023-07-02T06:03:09;98865.34;;;17.48;92.37
59767;BME280;46248;58.364;25.582;2023-07-02T06:06:31;98859.41;;;17.46;93.44
59767;BME280;46248;58.364;25.582;2023-07-02T06:09:54;98850.28;;;17.40;94.11
59767;BME280;46248;58.364;25.582;2023-07-02T06:13:17;98850.44;;;17.39;93.99
59767;BME280;46248;58.364;25.582;2023-07-02T06:16:39;98858.06;;;17.42;94.19
59767;BME280;46248;58.364;25.582;2023-07-02T06:20:02;98848.13;;;17.36;94.32
59767;BME280;46248;58.364;25.582;2023-07-02T06:23:25;98853.44;;;17.44;94.08
59767;BME280;46248;58.364;25.582;2023-07-02T06:26:48;98862.53;;;17.50;93.65
59767;BME280;46248;58.364;25.582;2023-07-02T06:30:11;98859.91;;;17.50;93.02
59767;BME280;46248;58.364;25.582;2023-07-02T06:33:33;98858.22;;;17.49;92.98
59767;BME280;46248;58.364;25.582;2023-07-02T06:36:55;98858.41;;;17.47;93.74
59767;BME280;46248;58.364;25.582;2023-07-02T06:40:17;98845.16;;;17.39;93.98
59767;BME280;46248;58.364;25.582;2023-07-02T06:43:41;98836.72;;;17.35;94.21
59767;BME280;46248;58.364;25.582;2023-07-02T06:47:03;98842.50;;;17.39;94.14
59767;BME280;46248;58.364;25.582;2023-07-02T06:50:25;98841.53;;;17.40;94.22
59767;BME280;46248;58.364;25.582;2023-07-02T06:53:47;98843.00;;;17.43;94.17
59767;BME280;46248;58.364;25.582;2023-07-02T06:57:09;98846.19;;;17.46;93.99
59767;BME280;46248;58.364;25.582;2023-07-02T07:00:33;98843.53;;;17.54;94.01
59767;BME280;46248;58.364;25.582;2023-07-02T07:03:56;98835.91;;;17.59;92.48
59767;BME280;46248;58.364;25.582;2023-07-02T07:07:17;98828.97;;;17.58;91.64
59767;BME280;46248;58.364;25.582;2023-07-02T07:10:40;98826.84;;;17.62;91.04
59767;BME280;46248;58.364;25.582;2023-07-02T07:14:01;98821.53;;;17.70;90.31
59767;BME280;46248;58.364;25.582;2023-07-02T07:17:24;98817.59;;;17.82;88.93
59767;BME280;46248;58.364;25.582;2023-07-02T07:20:47;98820.75;;;17.86;88.44
59767;BME280;46248;58.364;25.582;2023-07-02T07:24:09;98820.06;;;18.00;88.10
59767;BME280;46248;58.364;25.582;2023-07-02T07:27:31;98805.16;;;18.07;85.85
59767;BME280;46248;58.364;25.582;2023-07-02T07:30:53;98807.94;;;18.22;86.13
59767;BME280;46248;58.364;25.582;2023-07-02T07:34:16;98807.88;;;18.47;85.72
59767;BME280;46248;58.364;25.582;2023-07-02T07:37:37;98794.50;;;18.71;83.88
59767;BME280;46248;58.364;25.582;2023-07-02T07:40:59;98792.09;;;18.93;83.15
59767;BME280;46248;58.364;25.582;2023-07-02T07:44:21;98795.63;;;19.16;81.77
59767;BME280;46248;58.364;25.582;2023-07-02T07:47:43;98795.38;;;19.26;79.22
59767;BME280;46248;58.364;25.582;2023-07-02T07:51:06;98789.72;;;19.29;78.33
59767;BME280;46248;58.364;25.582;2023-07-02T07:54:28;98790.03;;;19.34;78.05
59767;BME280;46248;58.364;25.582;2023-07-02T07:57:50;98794.28;;;19.43;77.73
59767;BME280;46248;58.364;25.582;2023-07-02T08:01:12;98792.09;;;19.47;77.91
59767;BME280;46248;58.364;25.582;2023-07-02T08:04:34;98781.94;;;19.51;77.00
59767;BME280;46248;58.364;25.582;2023-07-02T08:07:59;98781.50;;;19.62;76.50
59767;BME280;46248;58.364;25.582;2023-07-02T08:11:21;98793.09;;;19.69;76.50
59767;BME280;46248;58.364;25.582;2023-07-02T08:14:43;98786.25;;;19.75;74.60
59767;BME280;46248;58.364;25.582;2023-07-02T08:18:05;98787.25;;;19.74;75.90
59767;BME280;46248;58.364;25.582;2023-07-02T08:21:28;98789.00;;;19.81;74.76
59767;BME280;46248;58.364;25.582;2023-07-02T08:24:51;98788.41;;;19.94;71.84
59767;BME280;46248;58.364;25.582;2023-07-02T08:28:13;98777.25;;;20.13;72.75
59767;BME280;46248;58.364;25.582;2023-07-02T08:31:34;98773.47;;;20.38;72.79
59767;BME280;46248;58.364;25.582;2023-07-02T08:34:56;98764.34;;;20.55;70.56
59767;BME280;46248;58.364;25.582;2023-07-02T08:38:18;98752.31;;;20.59;69.58
59767;BME280;46248;58.364;25.582;2023-07-02T08:41:45;98752.75;;;20.63;70.06
59767;BME280;46248;58.364;25.582;2023-07-02T08:45:08;98766.41;;;20.74;70.75
59767;BME280;46248;58.364;25.582;2023-07-02T08:48:31;98767.50;;;20.80;69.58
59767;BME280;46248;58.364;25.582;2023-07-02T08:51:53;98761.47;;;20.71;70.57
59767;BME280;46248;58.364;25.582;2023-07-02T08:55:15;98759.63;;;20.72;70.30
59767;BME280;46248;58.364;25.582;2023-07-02T08:58:40;98770.81;;;20.67;70.95
59767;BME280;46248;58.364;25.582;2023-07-02T09:02:02;98762.19;;;20.50;71.56
59767;BME280;46248;58.364;25.582;2023-07-02T09:05:24;98763.66;;;20.38;72.08
59767;BME280;46248;58.364;25.582;2023-07-02T09:08:46;98745.63;;;20.33;72.41
59767;BME280;46248;58.364;25.582;2023-07-02T09:12:08;98758.50;;;20.51;72.13
59767;BME280;46248;58.364;25.582;2023-07-02T09:15:36;98753.19;;;20.66;71.13
59767;BME280;46248;58.364;25.582;2023-07-02T09:19:00;98751.84;;;20.70;71.12
59767;BME280;46248;58.364;25.582;2023-07-02T09:22:22;98734.56;;;20.81;71.13
59767;BME280;46248;58.364;25.582;2023-07-02T09:25:43;98743.31;;;21.18;71.06
59767;BME280;46248;58.364;25.582;2023-07-02T09:29:05;98736.34;;;21.60;69.76
59767;BME280;46248;58.364;25.582;2023-07-02T09:32:28;98746.25;;;21.94;69.06
59767;BME280;46248;58.364;25.582;2023-07-02T09:35:51;98738.19;;;21.87;67.93
59767;BME280;46248;58.364;25.582;2023-07-02T09:39:14;98734.88;;;21.57;68.12
59767;BME280;46248;58.364;25.582;2023-07-02T09:42:38;98733.31;;;21.20;70.32
59767;BME280;46248;58.364;25.582;2023-07-02T09:46:00;98736.66;;;20.86;72.59
59767;BME280;46248;58.364;25.582;2023-07-02T09:49:24;98726.16;;;20.63;74.44
59767;BME280;46248;58.364;25.582;2023-07-02T09:52:48;98731.47;;;20.48;75.70
59767;BME280;46248;58.364;25.582;2023-07-02T09:56:11;98729.19;;;20.45;77.21
59767;BME280;46248;58.364;25.582;2023-07-02T09:59:33;98724.53;;;20.32;77.55
59767;BME280;46248;58.364;25.582;2023-07-02T10:02:55;98732.59;;;20.09;78.23
59767;BME280;46248;58.364;25.582;2023-07-02T10:06:19;98741.50;;;20.01;80.23
59767;BME280;46248;58.364;25.582;2023-07-02T10:09:43;98739.47;;;19.88;82.23
59767;BME280;46248;58.364;25.582;2023-07-02T10:13:05;98739.38;;;19.82;82.92
59767;BME280;46248;58.364;25.582;2023-07-02T10:16:27;98734.69;;;19.69;83.60
59767;BME280;46248;58.364;25.582;2023-07-02T10:19:52;98744.06;;;19.57;84.07
59767;BME280;46248;58.364;25.582;2023-07-02T10:23:15;98726.59;;;19.39;84.90
59767;BME280;46248;58.364;25.582;2023-07-02T10:26:37;98735.19;;;19.27;85.07
59767;BME280;46248;58.364;25.582;2023-07-02T10:29:58;98732.00;;;19.08;85.79
59767;BME280;46248;58.364;25.582;2023-07-02T10:33:20;98726.63;;;18.93;86.62
59767;BME280;46248;58.364;25.582;2023-07-02T10:36:43;98722.03;;;18.87;87.68
59767;BME280;46248;58.364;25.582;2023-07-02T10:40:08;98722.22;;;18.86;89.11
59767;BME280;46248;58.364;25.582;2023-07-02T10:43:31;98713.66;;;18.75;89.17
59767;BME280;46248;58.364;25.582;2023-07-02T10:46:53;98720.47;;;18.70;89.19
59767;BME280;46248;58.364;25.582;2023-07-02T10:50:16;98709.88;;;18.70;89.34
59767;BME280;46248;58.364;25.582;2023-07-02T10:53:39;98720.06;;;18.81;89.84
59767;BME280;46248;58.364;25.582;2023-07-02T10:57:02;98718.56;;;18.87;89.83
59767;BME280;46248;58.364;25.582;2023-07-02T11:00:24;98722.38;;;18.84;89.40
59767;BME280;46248;58.364;25.582;2023-07-02T11:03:55;98705.41;;;18.62;89.88
59767;BME280;46248;58.364;25.582;2023-07-02T11:07:22;98708.63;;;18.49;90.56
59767;BME280;46248;58.364;25.582;2023-07-02T11:10:44;98704.53;;;18.39;90.93
59767;BME280;46248;58.364;25.582;2023-07-02T11:14:07;98699.94;;;18.33;91.35
59767;BME280;46248;58.364;25.582;2023-07-02T11:17:29;98705.22;;;18.33;91.84
59767;BME280;46248;58.364;25.582;2023-07-02T11:20:51;98684.69;;;18.35;91.94
59767;BME280;46248;58.364;25.582;2023-07-02T11:24:13;98689.47;;;18.39;91.66
59767;BME280;46248;58.364;25.582;2023-07-02T11:27:34;98679.19;;;18.44;92.54
59767;BME280;46248;58.364;25.582;2023-07-02T11:30:58;98680.34;;;18.42;92.09
59767;BME280;46248;58.364;25.582;2023-07-02T11:34:21;98660.31;;;18.39;93.05
59767;BME280;46248;58.364;25.582;2023-07-02T11:37:45;98661.22;;;18.54;92.72
59767;BME280;46248;58.364;25.582;2023-07-02T11:41:08;98665.63;;;18.70;92.28
59767;BME280;46248;58.364;25.582;2023-07-02T11:44:30;98661.94;;;18.80;91.79
59767;BME280;46248;58.364;25.582;2023-07-02T11:47:53;98658.38;;;18.87;91.36
59767;BME280;46248;58.364;25.582;2023-07-02T11:51:15;98657.31;;;18.96;91.32
59767;BME280;46248;58.364;25.582;2023-07-02T11:54:37;98651.59;;;19.08;91.40
59767;BME280;46248;58.364;25.582;2023-07-02T11:58:00;98660.78;;;19.20;90.57
59767;BME280;46248;58.364;25.582;2023-07-02T12:01:21;98662.16;;;19.16;90.25
59767;BME280;46248;58.364;25.582;2023-07-02T12:04:45;98663.22;;;19.07;89.84
59767;BME280;46248;58.364;25.582;2023-07-02T12:08:07;98660.31;;;18.93;90.18
59767;BME280;46248;58.364;25.582;2023-07-02T12:11:29;98663.63;;;18.95;90.85
59767;BME280;46248;58.364;25.582;2023-07-02T12:14:51;98644.56;;;19.15;90.77
59767;BME280;46248;58.364;25.582;2023-07-02T12:18:12;98646.38;;;19.52;90.36
59767;BME280;46248;58.364;25.582;2023-07-02T12:21:36;98653.66;;;19.88;88.86
59767;BME280;46248;58.364;25.582;2023-07-02T12:24:57;98650.78;;;20.19;88.03
59767;BME280;46248;58.364;25.582;2023-07-02T12:28:19;98642.03;;;20.55;86.99
59767;BME280;46248;58.364;25.582;2023-07-02T12:31:41;98639.81;;;20.80;84.96
59767;BME280;46248;58.364;25.582;2023-07-02T12:35:03;98639.44;;;20.83;83.51
59767;BME280;46248;58.364;25.582;2023-07-02T12:38:27;98636.13;;;20.81;84.25
59767;BME280;46248;58.364;25.582;2023-07-02T12:41:49;98637.91;;;20.95;83.58
59767;BME280;46248;58.364;25.582;2023-07-02T12:45:11;98623.19;;;20.99;82.67
59767;BME280;46248;58.364;25.582;2023-07-02T12:48:33;98626.72;;;21.00;84.96
59767;BME280;46248;58.364;25.582;2023-07-02T12:51:55;98616.69;;;21.02;85.46
59767;BME280;46248;58.364;25.582;2023-07-02T12:55:18;98605.78;;;21.18;85.53
59767;BME280;46248;58.364;25.582;2023-07-02T12:58:40;98597.22;;;21.30;84.68
59767;BME280;46248;58.364;25.582;2023-07-02T13:02:02;98606.28;;;21.35;83.20
59767;BME280;46248;58.364;25.582;2023-07-02T13:05:24;98608.94;;;21.35;82.68
59767;BME280;46248;58.364;25.582;2023-07-02T13:08:46;98598.44;;;21.48;82.52
59767;BME280;46248;58.364;25.582;2023-07-02T13:12:10;98606.53;;;21.68;81.77
59767;BME280;46248;58.364;25.582;2023-07-02T13:15:32;98620.94;;;21.87;80.43
59767;BME280;46248;58.364;25.582;2023-07-02T13:18:56;98608.66;;;21.86;79.01
59767;BME280;46248;58.364;25.582;2023-07-02T13:22:18;98626.06;;;21.82;78.52
59767;BME280;46248;58.364;25.582;2023-07-02T13:25:40;98614.94;;;21.72;77.11
59767;BME280;46248;58.364;25.582;2023-07-02T13:29:03;98616.06;;;21.56;77.74
59767;BME280;46248;58.364;25.582;2023-07-02T13:32:25;98615.69;;;21.59;77.29
59767;BME280;46248;58.364;25.582;2023-07-02T13:35:51;98619.16;;;21.60;76.78
59767;BME280;46248;58.364;25.582;2023-07-02T13:39:13;98621.38;;;21.49;76.17
59767;BME280;46248;58.364;25.582;2023-07-02T13:42:35;98611.47;;;21.37;77.20
59767;BME280;46248;58.364;25.582;2023-07-02T13:45:58;98613.66;;;21.33;77.01
59767;BME280;46248;58.364;25.582;2023-07-02T13:49:20;98611.00;;;21.33;77.69
59767;BME280;46248;58.364;25.582;2023-07-02T13:52:42;98619.06;;;21.40;77.10
59767;BME280;46248;58.364;25.582;2023-07-02T13:56:04;98615.69;;;21.31;77.69
59767;BME280;46248;58.364;25.582;2023-07-02T13:59:28;98625.66;;;21.22;77.01
59767;BME280;46248;58.364;25.582;2023-07-02T14:02:50;98626.94;;;21.05;77.63
59767;BME280;46248;58.364;25.582;2023-07-02T14:06:12;98608.00;;;20.93;77.24
59767;BME280;46248;58.364;25.582;2023-07-02T14:09:34;98605.94;;;20.89;77.76
59767;BME280;46248;58.364;25.582;2023-07-02T14:12:58;98588.31;;;20.88;77.23
59767;BME280;46248;58.364;25.582;2023-07-02T14:16:21;98583.44;;;20.91;75.94
59767;BME280;46248;58.364;25.582;2023-07-02T14:19:44;98585.47;;;20.89;76.54
59767;BME280;46248;58.364;25.582;2023-07-02T14:23:06;98586.28;;;20.90;77.06
59767;BME280;46248;58.364;25.582;2023-07-02T14:26:28;98587.09;;;20.90;76.78
59767;BME280;46248;58.364;25.582;2023-07-02T14:29:50;98592.91;;;20.94;76.56
59767;BME280;46248;58.364;25.582;2023-07-02T14:33:14;98598.50;;;20.84;76.59
59767;BME280;46248;58.364;25.582;2023-07-02T14:36:36;98586.13;;;20.70;78.29
59767;BME280;46248;58.364;25.582;2023-07-02T14:39:58;98587.44;;;20.59;79.29
59767;BME280;46248;58.364;25.582;2023-07-02T14:43:26;98595.88;;;20.48;81.53
59767;BME280;46248;58.364;25.582;2023-07-02T14:46:49;98586.53;;;20.30;80.56
59767;BME280;46248;58.364;25.582;2023-07-02T14:50:12;98588.81;;;20.33;80.44
59767;BME280;46248;58.364;25.582;2023-07-02T14:53:38;98588.91;;;20.25;80.98
59767;BME280;46248;58.364;25.582;2023-07-02T14:57:00;98581.16;;;20.09;80.55
59767;BME280;46248;58.364;25.582;2023-07-02T15:00:22;98585.03;;;20.06;80.55
59767;BME280;46248;58.364;25.582;2023-07-02T15:03:44;98587.16;;;19.96;80.78
59767;BME280;46248;58.364;25.582;2023-07-02T15:07:07;98588.09;;;19.88;80.79
59767;BME280;46248;58.364;25.582;2023-07-02T15:10:29;98588.34;;;19.79;81.28
59767;BME280;46248;58.364;25.582;2023-07-02T15:13:51;98586.25;;;19.59;81.60
59767;BME280;46248;58.364;25.582;2023-07-02T15:17:14;98590.66;;;19.52;82.09
59767;BME280;46248;58.364;25.582;2023-07-02T15:20:36;98590.28;;;19.40;82.76
59767;BME280;46248;58.364;25.582;2023-07-02T15:24:00;98590.19;;;19.34;83.60
59767;BME280;46248;58.364;25.582;2023-07-02T15:27:22;98597.31;;;19.18;86.21
59767;BME280;46248;58.364;25.582;2023-07-02T15:30:43;98603.81;;;18.93;87.50
59767;BME280;46248;58.364;25.582;2023-07-02T15:34:05;98618.59;;;18.64;89.41
59767;BME280;46248;58.364;25.582;2023-07-02T15:37:28;98615.00;;;18.34;89.30
59767;BME280;46248;58.364;25.582;2023-07-02T15:41:05;98614.38;;;18.24;90.39
59767;BME280;46248;58.364;25.582;2023-07-02T15:44:28;98624.16;;;18.15;93.22
59767;BME280;46248;58.364;25.582;2023-07-02T15:47:50;98610.53;;;17.95;91.89
59767;BME280;46248;58.364;25.582;2023-07-02T15:51:12;98617.16;;;17.91;92.75
59767;BME280;46248;58.364;25.582;2023-07-02T15:54:34;98618.19;;;17.82;93.84
59767;BME280;46248;58.364;25.582;2023-07-02T15:57:58;98620.53;;;17.69;94.04
59767;BME280;46248;58.364;25.582;2023-07-02T16:01:20;98617.09;;;17.60;93.49
59767;BME280;46248;58.364;25.582;2023-07-02T16:04:43;98622.38;;;17.52;93.81
59767;BME280;46248;58.364;25.582;2023-07-02T16:08:06;98621.09;;;17.48;95.04
59767;BME280;46248;58.364;25.582;2023-07-02T16:11:29;98625.56;;;17.47;94.63
59767;BME280;46248;58.364;25.582;2023-07-02T16:14:56;98619.31;;;17.40;94.96
59767;BME280;46248;58.364;25.582;2023-07-02T16:18:18;98609.22;;;17.27;95.89
59767;BME280;46248;58.364;25.582;2023-07-02T16:21:41;98595.03;;;17.20;95.51
59767;BME280;46248;58.364;25.582;2023-07-02T16:25:03;98586.75;;;17.15;95.43
59767;BME280;46248;58.364;25.582;2023-07-02T16:28:25;98591.06;;;17.16;96.13
59767;BME280;46248;58.364;25.582;2023-07-02T16:31:54;98582.13;;;17.09;96.89
59767;BME280;46248;58.364;25.582;2023-07-02T16:35:17;98583.13;;;17.00;96.97
59767;BME280;46248;58.364;25.582;2023-07-02T16:38:39;98590.25;;;16.99;97.66
59767;BME280;46248;58.364;25.582;2023-07-02T16:42:01;98575.72;;;16.95;97.99
59767;BME280;46248;58.364;25.582;2023-07-02T16:45:25;98581.16;;;17.02;98.30
59767;BME280;46248;58.364;25.582;2023-07-02T16:48:48;98568.09;;;17.00;97.93
59767;BME280;46248;58.364;25.582;2023-07-02T16:52:10;98570.78;;;16.92;98.83
59767;BME280;46248;58.364;25.582;2023-07-02T16:55:34;98581.34;;;16.92;100.00
59767;BME280;46248;58.364;25.582;2023-07-02T16:58:57;98564.00;;;16.89;99.86
59767;BME280;46248;58.364;25.582;2023-07-02T17:02:18;98567.63;;;16.97;99.82
59767;BME280;46248;58.364;25.582;2023-07-02T17:05:42;98559.88;;;16.95;99.86
59767;BME280;46248;58.364;25.582;2023-07-02T17:09:18;98562.50;;;16.95;100.00
59767;BME280;46248;58.364;25.582;2023-07-02T17:12:41;98557.06;;;16.88;99.87
59767;BME280;46248;58.364;25.582;2023-07-02T17:16:04;98572.25;;;16.86;100.00
59767;BME280;46248;58.364;25.582;2023-07-02T17:19:28;98574.41;;;16.83;100.00
59767;BME280;46248;58.364;25.582;2023-07-02T17:22:51;98573.56;;;16.82;100.00
59767;BME280;46248;58.364;25.582;2023-07-02T17:26:13;98579.03;;;16.81;100.00
59767;BME280;46248;58.364;25.582;2023-07-02T17:29:35;98577.53;;;16.78;100.00
59767;BME280;46248;58.364;25.582;2023-07-02T17:32:58;98580.47;;;16.75;100.00
59767;BME280;46248;58.364;25.582;2023-07-02T17:36:21;98594.69;;;16.74;100.00
59767;BME280;46248;58.364;25.582;2023-07-02T17:39:44;98574.69;;;16.63;100.00